Time;durP1;ratioP1;P1;durP2;ratioP2;P2;SDS_P1;SDS_P2;PMS_P1;PMS_P2;Temp;Humidity;BMP_temperature;BMP_pressure;BME280_temperature;BME280_humidity;BME280_pressure;Samples;Min_cycle;Max_cycle;Signal;HPM_P1;HPM_P2
2022/07/10 00:00:26;;;;;;;9.20;3.25;;;;;;;;;;5000157;28;20369;-82
2022/07/10 00:02:52;;;;;;;6.43;2.05;;;;;;;;;;5053633;28;20057;-82
2022/07/10 00:05:18;;;;;;;7.72;2.15;;;;;;;;;;5053788;28;20044;-82
2022/07/10 00:07:45;;;;;;;6.88;2.67;;;;;;;;;;5020363;28;20094;-82
2022/07/10 00:10:11;;;;;;;7.03;2.35;;;;;;;;;;5054884;28;20468;-82
2022/07/10 00:12:38;;;;;;;6.05;3.10;;;;;;;;;;5054308;28;20047;-83
2022/07/10 00:15:04;;;;;;;4.80;2.10;;;;;;;;;;5037991;28;20588;-82
2022/07/10 00:17:31;;;;;;;8.07;3.15;;;;;;;;;;5031296;28;20043;-82
2022/07/10 00:19:58;;;;;;;13.43;2.88;;;;;;;;;;5054572;28;20048;-82
2022/07/10 00:22:24;;;;;;;7.30;2.33;;;;;;;;;;5037274;28;20058;-82
2022/07/10 00:24:50;;;;;;;5.57;2.47;;;;;;;;;;5054694;28;20040;-82
2022/07/10 00:27:17;;;;;;;8.43;2.80;;;;;;;;;;5063437;28;20036;-82
2022/07/10 00:29:43;;;;;;;5.28;1.80;;;;;;;;;;5042602;28;20483;-82
2022/07/10 00:32:09;;;;;;;5.30;1.77;;;;;;;;;;5057049;28;20559;-82
2022/07/10 00:34:35;;;;;;;7.13;1.90;;;;;;;;;;5037809;28;20043;-82
2022/07/10 00:37:02;;;;;;;5.40;2.10;;;;;;;;;;5053819;28;20419;-82
2022/07/10 00:39:29;;;;;;;6.60;2.10;;;;;;;;;;5053849;28;20044;-82
2022/07/10 00:41:55;;;;;;;4.47;2.22;;;;;;;;;;5004810;28;20368;-82
2022/07/10 00:44:21;;;;;;;5.88;2.20;;;;;;;;;;5037686;28;20574;-82
2022/07/10 00:46:47;;;;;;;6.38;2.33;;;;;;;;;;5041998;28;20047;-82
2022/07/10 00:49:13;;;;;;;16.08;3.13;;;;;;;;;;5039230;28;20037;-82
2022/07/10 00:51:40;;;;;;;4.95;2.20;;;;;;;;;;5025529;28;20059;-82
2022/07/10 00:54:06;;;;;;;5.03;2.08;;;;;;;;;;5053550;28;20045;-82
2022/07/10 00:56:32;;;;;;;8.25;2.25;;;;;;;;;;5036598;28;20032;-83
2022/07/10 00:58:59;;;;;;;7.00;1.95;;;;;;;;;;5036143;28;20040;-82
2022/07/10 01:01:25;;;;;;;6.25;2.00;;;;;;;;;;5057144;28;20063;-83
2022/07/10 01:03:51;;;;;;;9.75;2.00;;;;;;;;;;5023195;28;20051;-82
2022/07/10 01:06:18;;;;;;;6.60;2.03;;;;;;;;;;5054229;28;20048;-82
2022/07/10 01:08:45;;;;;;;10.45;2.90;;;;;;;;;;5045550;28;20052;-82
2022/07/10 01:11:11;;;;;;;12.30;3.17;;;;;;;;;;5053196;28;20132;-82
2022/07/10 01:13:38;;;;;;;5.85;1.90;;;;;;;;;;5024056;28;20474;-82
2022/07/10 01:16:04;;;;;;;5.65;2.35;;;;;;;;;;5020607;28;20036;-82
2022/07/10 01:18:30;;;;;;;10.10;1.80;;;;;;;;;;5063839;28;20070;-82
2022/07/10 01:20:56;;;;;;;4.60;1.90;;;;;;;;;;5042113;28;20055;-82
2022/07/10 01:23:23;;;;;;;10.48;2.03;;;;;;;;;;5036359;28;20531;-82
2022/07/10 01:25:50;;;;;;;2.63;1.30;;;;;;;;;;5020364;28;20129;-82
2022/07/10 01:28:20;;;;;;;5.03;1.90;;;;;;;;;;5020303;28;20110;-83
2022/07/10 01:30:46;;;;;;;5.35;2.10;;;;;;;;;;5024118;28;20473;-83
2022/07/10 01:33:12;;;;;;;4.55;1.55;;;;;;;;;;5058449;28;20485;-82
2022/07/10 01:35:39;;;;;;;6.10;1.83;;;;;;;;;;5053528;28;20033;-82
2022/07/10 01:38:06;;;;;;;5.97;1.77;;;;;;;;;;5059443;28;20057;-82
2022/07/10 01:40:34;;;;;;;7.25;1.90;;;;;;;;;;5054992;28;20044;-82
2022/07/10 01:43:00;;;;;;;3.78;1.55;;;;;;;;;;5038428;28;20295;-83
2022/07/10 01:45:27;;;;;;;7.68;1.80;;;;;;;;;;5054038;28;20499;-83
2022/07/10 01:47:53;;;;;;;2.72;1.27;;;;;;;;;;5037616;28;20083;-82
2022/07/10 01:50:20;;;;;;;4.95;1.98;;;;;;;;;;5035630;28;20036;-82
2022/07/10 01:52:46;;;;;;;4.53;1.52;;;;;;;;;;5039157;28;20047;-82
2022/07/10 01:55:12;;;;;;;4.93;1.30;;;;;;;;;;5037233;28;20037;-82
2022/07/10 01:57:38;;;;;;;8.02;2.40;;;;;;;;;;5039288;28;20081;-82
2022/07/10 02:00:05;;;;;;;8.40;2.08;;;;;;;;;;5056594;28;20491;-82
2022/07/10 02:02:31;;;;;;;5.43;1.45;;;;;;;;;;5042113;28;20045;-82
2022/07/10 02:04:57;;;;;;;5.13;2.05;;;;;;;;;;5019855;28;20048;-82
2022/07/10 02:07:25;;;;;;;4.97;1.60;;;;;;;;;;5023934;28;20076;-82
2022/07/10 02:09:52;;;;;;;9.00;2.00;;;;;;;;;;5041988;28;20143;-82
2022/07/10 02:12:18;;;;;;;5.88;2.03;;;;;;;;;;5057356;28;20044;-82
2022/07/10 02:14:44;;;;;;;13.07;2.10;;;;;;;;;;5005056;28;20059;-82
2022/07/10 02:17:11;;;;;;;12.43;2.05;;;;;;;;;;5055187;28;20123;-82
2022/07/10 02:19:37;;;;;;;4.88;2.00;;;;;;;;;;5050284;28;21652;-82
2022/07/10 02:22:03;;;;;;;8.23;2.13;;;;;;;;;;5040791;28;20044;-82
2022/07/10 02:24:30;;;;;;;3.33;1.80;;;;;;;;;;5043867;28;20127;-82
2022/07/10 02:26:56;;;;;;;7.68;1.90;;;;;;;;;;5023417;28;20037;-82
2022/07/10 02:29:23;;;;;;;5.47;2.33;;;;;;;;;;5051766;28;20041;-82
2022/07/10 02:31:49;;;;;;;6.55;2.47;;;;;;;;;;5044391;28;20036;-82
2022/07/10 02:34:15;;;;;;;6.05;1.98;;;;;;;;;;5040437;28;20037;-83
2022/07/10 02:36:41;;;;;;;5.20;1.70;;;;;;;;;;5036739;28;20132;-83
2022/07/10 02:39:09;;;;;;;9.75;3.38;;;;;;;;;;5053718;28;20459;-82
2022/07/10 02:41:38;;;;;;;6.90;2.22;;;;;;;;;;5058033;28;20037;-82
2022/07/10 02:44:04;;;;;;;6.40;2.97;;;;;;;;;;5018770;28;20044;-83
2022/07/10 02:46:30;;;;;;;8.43;2.25;;;;;;;;;;5054318;28;20107;-79
2022/07/10 02:48:57;;;;;;;7.32;2.70;;;;;;;;;;5052621;28;20072;-79
2022/07/10 02:51:23;;;;;;;6.40;2.33;;;;;;;;;;5029618;28;20072;-79
2022/07/10 02:53:49;;;;;;;5.72;2.38;;;;;;;;;;5036692;28;20140;-79
2022/07/10 02:56:15;;;;;;;5.93;1.80;;;;;;;;;;5031577;28;20043;-79
2022/07/10 02:58:42;;;;;;;3.83;1.58;;;;;;;;;;5036751;28;20091;-79
2022/07/10 03:01:08;;;;;;;4.90;2.08;;;;;;;;;;5061343;28;20037;-79
2022/07/10 03:03:35;;;;;;;3.88;1.60;;;;;;;;;;5053535;28;20118;-79
2022/07/10 03:06:01;;;;;;;7.38;1.63;;;;;;;;;;5047823;28;21633;-79
2022/07/10 03:08:27;;;;;;;5.38;2.33;;;;;;;;;;5037289;28;20550;-79
2022/07/10 03:10:53;;;;;;;8.32;2.13;;;;;;;;;;5050410;28;20048;-79
2022/07/10 03:13:19;;;;;;;11.40;2.38;;;;;;;;;;5034242;28;20033;-79
2022/07/10 03:15:45;;;;;;;6.55;1.92;;;;;;;;;;5009495;28;20087;-79
2022/07/10 03:18:11;;;;;;;21.08;3.75;;;;;;;;;;5003443;28;20486;-79
2022/07/10 03:20:37;;;;;;;5.25;1.88;;;;;;;;;;5037765;28;20032;-79
2022/07/10 03:23:04;;;;;;;6.20;1.90;;;;;;;;;;5030643;28;20047;-79
2022/07/10 03:25:30;;;;;;;8.32;2.22;;;;;;;;;;5036052;28;20465;-79
2022/07/10 03:27:56;;;;;;;7.30;2.38;;;;;;;;;;5036572;28;20047;-79
2022/07/10 03:30:22;;;;;;;6.50;2.33;;;;;;;;;;5032144;28;20112;-79
2022/07/10 03:32:48;;;;;;;7.00;2.03;;;;;;;;;;5036507;28;20444;-79
2022/07/10 03:35:14;;;;;;;7.32;1.77;;;;;;;;;;5035893;28;20037;-79
2022/07/10 03:37:40;;;;;;;5.53;1.77;;;;;;;;;;5031700;28;20405;-79
2022/07/10 03:40:07;;;;;;;10.30;2.67;;;;;;;;;;5034650;28;20488;-79
2022/07/10 03:42:33;;;;;;;8.80;2.45;;;;;;;;;;5053450;28;20036;-79
2022/07/10 03:44:59;;;;;;;6.95;2.30;;;;;;;;;;5035248;28;20147;-79
2022/07/10 03:47:25;;;;;;;10.85;2.78;;;;;;;;;;5033108;28;20451;-79
2022/07/10 03:49:51;;;;;;;7.45;2.35;;;;;;;;;;5018951;28;20033;-79
2022/07/10 03:52:17;;;;;;;9.38;2.80;;;;;;;;;;5027502;28;20085;-79
2022/07/10 03:54:43;;;;;;;11.57;2.85;;;;;;;;;;5032664;28;20044;-79
2022/07/10 03:59:54;;;;;;;7.78;2.72;;;;;;;;;;5060831;28;20055;-79
2022/07/10 04:02:20;;;;;;;8.02;2.47;;;;;;;;;;5000435;28;20438;-79
2022/07/10 04:04:47;;;;;;;7.47;2.70;;;;;;;;;;5051856;28;20170;-79
2022/07/10 04:07:13;;;;;;;8.50;2.80;;;;;;;;;;5020279;28;20049;-79
2022/07/10 04:09:39;;;;;;;9.23;2.67;;;;;;;;;;5031503;28;20048;-79
2022/07/10 04:12:05;;;;;;;6.20;2.88;;;;;;;;;;5032899;28;20123;-79
2022/07/10 04:14:32;;;;;;;8.15;2.63;;;;;;;;;;5051814;28;20033;-79
2022/07/10 04:16:58;;;;;;;6.25;2.95;;;;;;;;;;5018384;28;20041;-79
2022/07/10 04:19:25;;;;;;;8.43;3.08;;;;;;;;;;5036926;28;20029;-83
2022/07/10 04:21:51;;;;;;;10.20;2.95;;;;;;;;;;5052107;28;20048;-83
2022/07/10 04:24:17;;;;;;;6.60;3.10;;;;;;;;;;5034291;28;20037;-84
2022/07/10 04:26:44;;;;;;;7.22;2.60;;;;;;;;;;5051029;28;20070;-84
2022/07/10 04:29:10;;;;;;;10.25;3.38;;;;;;;;;;5034384;28;20041;-83
2022/07/10 04:31:36;;;;;;;7.05;3.00;;;;;;;;;;5046647;28;20045;-84
2022/07/10 04:34:02;;;;;;;6.25;2.53;;;;;;;;;;5037659;28;20128;-84
2022/07/10 04:36:30;;;;;;;9.65;3.33;;;;;;;;;;5051146;28;20099;-84
2022/07/10 04:38:56;;;;;;;9.35;3.65;;;;;;;;;;5050751;28;20048;-84
2022/07/10 04:41:22;;;;;;;12.25;3.38;;;;;;;;;;5036889;28;20121;-84
2022/07/10 04:43:49;;;;;;;5.18;2.60;;;;;;;;;;5050577;28;20049;-83
2022/07/10 04:46:15;;;;;;;9.50;3.45;;;;;;;;;;5047571;28;20045;-84
2022/07/10 04:48:45;;;;;;;5.38;2.70;;;;;;;;;;5046611;28;20501;-84
2022/07/10 04:51:11;;;;;;;6.65;2.78;;;;;;;;;;5017963;28;20082;-84
2022/07/10 04:53:37;;;;;;;6.57;2.55;;;;;;;;;;5046439;28;20041;-84
2022/07/10 04:56:03;;;;;;;6.18;2.92;;;;;;;;;;5032408;28;20393;-84
2022/07/10 04:58:30;;;;;;;10.63;3.05;;;;;;;;;;5014482;28;20094;-83
2022/07/10 05:00:56;;;;;;;5.88;2.28;;;;;;;;;;5050120;28;20045;-83
2022/07/10 05:03:22;;;;;;;5.63;2.25;;;;;;;;;;5033051;28;20076;-81
2022/07/10 05:05:48;;;;;;;7.45;2.22;;;;;;;;;;5033606;28;20433;-81
2022/07/10 05:08:14;;;;;;;5.97;1.90;;;;;;;;;;5040625;28;20230;-81
2022/07/10 05:10:41;;;;;;;8.73;2.47;;;;;;;;;;5033658;28;20041;-81
2022/07/10 05:13:07;;;;;;;5.03;1.90;;;;;;;;;;5033474;28;20090;-82
2022/07/10 05:15:33;;;;;;;25.67;4.55;;;;;;;;;;5038715;28;20099;-83
2022/07/10 05:18:00;;;;;;;5.32;1.70;;;;;;;;;;5034030;28;20044;-83
2022/07/10 05:20:26;;;;;;;5.50;2.33;;;;;;;;;;5032034;28;20060;-83
2022/07/10 05:22:52;;;;;;;8.77;2.60;;;;;;;;;;5031133;28;20057;-83
2022/07/10 05:25:18;;;;;;;5.43;2.35;;;;;;;;;;5046945;28;20124;-83
2022/07/10 05:27:47;;;;;;;7.22;2.38;;;;;;;;;;5019376;28;20063;-78
2022/07/10 05:30:13;;;;;;;4.15;2.17;;;;;;;;;;5037566;28;20048;-79
2022/07/10 05:32:43;;;;;;;5.55;2.22;;;;;;;;;;5046960;28;20044;-79
2022/07/10 05:35:09;;;;;;;5.00;3.05;;;;;;;;;;5029041;28;20048;-78
2022/07/10 05:37:36;;;;;;;5.90;2.45;;;;;;;;;;5032364;28;20061;-78
2022/07/10 05:40:02;;;;;;;6.32;2.65;;;;;;;;;;5051464;28;20457;-79
2022/07/10 05:42:28;;;;;;;8.93;2.17;;;;;;;;;;5031055;28;20389;-78
2022/07/10 05:44:54;;;;;;;8.45;2.33;;;;;;;;;;5059236;28;20052;-78
2022/07/10 05:47:20;;;;;;;6.63;2.67;;;;;;;;;;5020682;28;20427;-79
2022/07/10 05:49:46;;;;;;;7.47;2.78;;;;;;;;;;5020068;28;20120;-80
2022/07/10 05:52:12;;;;;;;11.35;3.85;;;;;;;;;;5045267;28;20835;-79
2022/07/10 05:54:39;;;;;;;6.50;2.90;;;;;;;;;;5028834;28;20037;-79
2022/07/10 05:57:05;;;;;;;4.43;2.38;;;;;;;;;;5042399;28;20035;-84
2022/07/10 05:59:35;;;;;;;5.70;2.10;;;;;;;;;;5019858;28;20170;-84
2022/07/10 06:02:04;;;;;;;3.67;1.92;;;;;;;;;;5026195;28;20485;-81
2022/07/10 06:04:30;;;;;;;4.80;2.13;;;;;;;;;;5043848;28;20037;-82
2022/07/10 06:07:03;;;;;;;5.80;2.38;;;;;;;;;;5020850;28;20045;-82
2022/07/10 06:09:29;;;;;;;;;;;;;;;;;;5031692;28;20033;-78
2022/07/10 06:11:55;;;;;;;5.55;1.92;;;;;;;;;;5064642;28;19917;-78
2022/07/10 06:14:22;;;;;;;9.90;2.30;;;;;;;;;;5036103;28;20065;-78
2022/07/10 06:16:48;;;;;;;5.43;2.03;;;;;;;;;;5015605;28;20033;-78
2022/07/10 06:19:17;;;;;;;2.63;1.63;;;;;;;;;;5038356;28;20076;-78
2022/07/10 06:21:43;;;;;;;9.63;2.15;;;;;;;;;;5021417;28;20060;-78
2022/07/10 06:24:09;;;;;;;5.15;1.70;;;;;;;;;;5053032;28;20346;-78
2022/07/10 06:26:35;;;;;;;7.25;2.15;;;;;;;;;;5014061;28;20552;-78
2022/07/10 06:29:02;;;;;;;5.10;2.35;;;;;;;;;;5038918;28;20882;-78
2022/07/10 06:31:28;;;;;;;2.50;1.45;;;;;;;;;;5034256;28;20611;-78
2022/07/10 06:33:55;;;;;;;2.83;1.20;;;;;;;;;;5003231;28;20469;-77
2022/07/10 06:36:21;;;;;;;3.88;1.60;;;;;;;;;;5053163;28;20067;-78
2022/07/10 06:38:47;;;;;;;2.90;1.30;;;;;;;;;;5041226;28;20500;-78
2022/07/10 06:41:13;;;;;;;3.65;1.30;;;;;;;;;;5038589;28;20051;-83
2022/07/10 06:43:39;;;;;;;6.20;1.63;;;;;;;;;;5058031;28;20563;-83
2022/07/10 06:46:06;;;;;;;5.22;2.20;;;;;;;;;;5043439;28;20170;-82
2022/07/10 06:48:32;;;;;;;6.30;2.55;;;;;;;;;;5041792;28;20116;-80
2022/07/10 06:50:58;;;;;;;5.28;1.45;;;;;;;;;;5030850;28;20092;-82
2022/07/10 06:53:26;;;;;;;4.47;2.35;;;;;;;;;;5062435;28;20134;-85
2022/07/10 06:55:53;;;;;;;5.10;1.80;;;;;;;;;;5042715;28;20072;-80
2022/07/10 06:58:19;;;;;;;5.75;2.13;;;;;;;;;;5057715;28;20079;-81
2022/07/10 07:00:46;;;;;;;4.40;1.70;;;;;;;;;;5059949;28;20477;-80
2022/07/10 07:03:12;;;;;;;5.70;1.65;;;;;;;;;;5039204;28;20045;-80
2022/07/10 07:05:39;;;;;;;1.83;1.02;;;;;;;;;;5035529;28;20584;-80
2022/07/10 07:08:05;;;;;;;3.90;1.42;;;;;;;;;;5055726;28;20041;-79
2022/07/10 07:10:31;;;;;;;9.88;1.73;;;;;;;;;;5052989;28;20060;-80
2022/07/10 07:12:59;;;;;;;3.70;1.33;;;;;;;;;;5022940;28;20091;-80
2022/07/10 07:15:26;;;;;;;2.30;1.00;;;;;;;;;;5024151;28;20033;-79
2022/07/10 07:18:07;;;;;;;5.03;1.20;;;;;;;;;;5011410;28;20435;-79
2022/07/10 07:23:20;;;;;;;5.13;1.50;;;;;;;;;;5029821;28;20369;-84
2022/07/10 07:25:46;;;;;;;3.10;1.70;;;;;;;;;;5031908;28;20140;-81
2022/07/10 07:28:15;;;;;;;3.53;1.67;;;;;;;;;;5029061;28;20041;-83
2022/07/10 07:30:41;;;;;;;8.38;2.42;;;;;;;;;;5017419;28;20061;-80
2022/07/10 07:33:07;;;;;;;9.20;2.10;;;;;;;;;;5022567;28;20055;-80
2022/07/10 07:35:34;;;;;;;4.22;1.98;;;;;;;;;;5031709;28;20037;-80
2022/07/10 07:38:02;;;;;;;6.00;2.13;;;;;;;;;;5049887;28;20513;-80
2022/07/10 07:40:28;;;;;;;6.97;1.88;;;;;;;;;;5048991;28;20099;-80
2022/07/10 07:42:55;;;;;;;4.00;1.70;;;;;;;;;;5017360;28;20107;-80
2022/07/10 07:45:21;;;;;;;4.75;2.60;;;;;;;;;;5022013;28;20363;-80
2022/07/10 07:47:51;;;;;;;6.63;2.70;;;;;;;;;;5053433;28;20037;-80
2022/07/10 07:50:27;;;;;;;5.20;1.80;;;;;;;;;;5040435;28;20278;-81
2022/07/10 07:52:54;;;;;;;3.50;1.73;;;;;;;;;;5020342;28;20048;-79
2022/07/10 07:55:20;;;;;;;4.57;2.03;;;;;;;;;;5033437;28;20465;-78
2022/07/10 07:57:47;;;;;;;5.03;2.22;;;;;;;;;;5048470;28;20036;-78
2022/07/10 08:00:14;;;;;;;3.67;1.58;;;;;;;;;;5034032;28;20472;-78
2022/07/10 08:02:41;;;;;;;3.85;1.92;;;;;;;;;;5019376;28;20091;-78
2022/07/10 08:05:10;;;;;;;7.72;1.70;;;;;;;;;;5064665;28;20090;-78
2022/07/10 08:07:37;;;;;;;2.75;1.48;;;;;;;;;;5035369;28;20041;-78
2022/07/10 08:10:04;;;;;;;3.65;1.80;;;;;;;;;;5049965;28;20132;-79
2022/07/10 08:12:30;;;;;;;4.38;2.53;;;;;;;;;;5050533;28;20041;-78
2022/07/10 08:14:58;;;;;;;4.50;2.10;;;;;;;;;;5011675;28;20095;-78
2022/07/10 08:17:24;;;;;;;11.00;2.20;;;;;;;;;;5043247;28;20045;-78
2022/07/10 08:19:50;;;;;;;5.45;1.60;;;;;;;;;;5031611;28;20376;-78
2022/07/10 08:22:16;;;;;;;6.38;1.58;;;;;;;;;;5046991;28;20063;-78
2022/07/10 08:24:42;;;;;;;8.00;1.70;;;;;;;;;;5062276;28;20094;-78
2022/07/10 08:27:09;;;;;;;3.05;1.85;;;;;;;;;;5050303;28;20037;-78
2022/07/10 08:29:37;;;;;;;4.75;1.65;;;;;;;;;;5050065;28;20036;-80
2022/07/10 08:32:04;;;;;;;5.03;2.38;;;;;;;;;;5030488;28;20037;-80
2022/07/10 08:34:32;;;;;;;6.07;2.38;;;;;;;;;;5064380;28;20116;-83
2022/07/10 08:36:59;;;;;;;3.13;1.65;;;;;;;;;;5061681;28;20128;-81
2022/07/10 08:39:25;;;;;;;4.85;1.88;;;;;;;;;;5026668;28;20044;-81
2022/07/10 08:41:52;;;;;;;9.63;2.65;;;;;;;;;;5057841;28;20041;-81
2022/07/10 08:44:18;;;;;;;7.10;1.65;;;;;;;;;;5071140;28;20037;-82
2022/07/10 08:46:45;;;;;;;18.15;2.80;;;;;;;;;;5033330;28;20036;-81
2022/07/10 08:49:13;;;;;;;5.38;2.05;;;;;;;;;;5048767;28;20111;-83
2022/07/10 08:51:54;;;;;;;6.35;1.73;;;;;;;;;;5036544;28;20037;-83
2022/07/10 08:54:20;;;;;;;3.83;1.63;;;;;;;;;;5036651;28;20025;-82
2022/07/10 08:56:47;;;;;;;3.60;1.55;;;;;;;;;;5044861;28;20036;-82
2022/07/10 08:59:14;;;;;;;6.25;1.90;;;;;;;;;;5051469;28;20036;-83
2022/07/10 09:01:41;;;;;;;4.97;2.05;;;;;;;;;;5040788;28;20036;-82
2022/07/10 09:04:07;;;;;;;5.53;1.70;;;;;;;;;;5061856;28;20040;-81
2022/07/10 09:06:36;;;;;;;4.22;1.90;;;;;;;;;;5049640;28;20049;-83
2022/07/10 09:09:06;;;;;;;5.03;1.73;;;;;;;;;;5043798;28;20072;-83
2022/07/10 09:11:33;;;;;;;2.80;1.70;;;;;;;;;;5039772;28;20087;-83
2022/07/10 09:14:02;;;;;;;9.85;2.17;;;;;;;;;;5033095;28;20037;-82
2022/07/10 09:16:30;;;;;;;4.00;1.95;;;;;;;;;;5069022;28;20045;-82
2022/07/10 09:18:56;;;;;;;5.18;1.85;;;;;;;;;;5032480;28;20040;-83
2022/07/10 09:21:24;;;;;;;3.47;2.00;;;;;;;;;;5080621;28;20076;-82
2022/07/10 09:23:50;;;;;;;3.58;1.83;;;;;;;;;;5050089;28;20087;-82
2022/07/10 09:26:16;;;;;;;7.85;2.53;;;;;;;;;;5034428;28;20148;-86
2022/07/10 09:28:42;;;;;;;4.18;1.75;;;;;;;;;;5049405;28;20056;-85
2022/07/10 09:31:09;;;;;;;4.78;1.85;;;;;;;;;;5038438;28;20037;-85
2022/07/10 09:33:36;;;;;;;3.67;1.67;;;;;;;;;;5021283;28;20059;-85
2022/07/10 09:38:46;;;;;;;7.35;2.47;;;;;;;;;;5038636;28;20053;-85
2022/07/10 09:41:13;;;;;;;4.03;2.08;;;;;;;;;;5065878;28;20036;-86
2022/07/10 09:43:46;;;;;;;5.38;1.98;;;;;;;;;;5065839;28;20057;-85
2022/07/10 09:46:12;;;;;;;4.95;1.63;;;;;;;;;;5072057;28;20071;-85
2022/07/10 09:48:39;;;;;;;9.20;1.77;;;;;;;;;;5043385;28;20049;-85
2022/07/10 09:51:09;;;;;;;8.20;2.50;;;;;;;;;;5038083;28;20120;-85
2022/07/10 09:53:39;;;;;;;5.20;2.58;;;;;;;;;;5036476;28;20385;-85
2022/07/10 09:56:07;;;;;;;6.38;2.13;;;;;;;;;;5056898;28;20035;-85
2022/07/10 09:58:35;;;;;;;4.57;1.90;;;;;;;;;;5053588;28;20139;-85
2022/07/10 10:01:03;;;;;;;5.50;2.05;;;;;;;;;;5059264;28;20125;-84
2022/07/10 10:03:33;;;;;;;7.13;2.42;;;;;;;;;;5039585;28;20036;-84
2022/07/10 10:06:18;;;;;;;4.60;2.15;;;;;;;;;;5039488;28;20132;-84
2022/07/10 10:09:10;;;;;;;5.45;2.63;;;;;;;;;;5035796;28;20041;-86
2022/07/10 10:11:37;;;;;;;4.63;1.80;;;;;;;;;;5037506;28;20032;-86
2022/07/10 10:14:07;;;;;;;4.88;1.80;;;;;;;;;;5035864;28;20484;-87
2022/07/10 10:16:33;;;;;;;4.40;1.90;;;;;;;;;;5017086;28;20052;-88
2022/07/10 10:21:45;;;;;;;6.78;2.08;;;;;;;;;;5049831;28;20086;-81
2022/07/10 10:24:11;;;;;;;7.25;1.90;;;;;;;;;;5030399;28;20049;-86
2022/07/10 10:26:37;;;;;;;6.28;2.30;;;;;;;;;;4999764;28;20481;-83
2022/07/10 10:29:06;;;;;;;5.80;1.98;;;;;;;;;;5033695;28;20041;-82
2022/07/10 10:31:32;;;;;;;3.08;1.60;;;;;;;;;;5018218;28;20041;-85
2022/07/10 10:34:00;;;;;;;3.78;1.77;;;;;;;;;;5006012;28;20056;-82
2022/07/10 10:36:33;;;;;;;4.72;2.22;;;;;;;;;;5038405;28;20056;-82
2022/07/10 10:39:22;;;;;;;6.38;2.25;;;;;;;;;;5074792;28;20814;-81
2022/07/10 10:41:55;;;;;;;3.90;1.63;;;;;;;;;;5046740;28;20052;-84
2022/07/10 10:44:25;;;;;;;9.80;1.90;;;;;;;;;;5043994;28;20047;-81
2022/07/10 10:46:56;;;;;;;6.53;2.25;;;;;;;;;;5052881;28;20032;-82
2022/07/10 10:49:24;;;;;;;3.65;2.08;;;;;;;;;;5054300;28;20044;-82
2022/07/10 10:51:57;;;;;;;5.03;1.80;;;;;;;;;;5038603;28;20040;-78
2022/07/10 10:54:23;;;;;;;6.70;2.10;;;;;;;;;;5068367;28;20532;-78
2022/07/10 10:57:08;;;;;;;4.47;1.77;;;;;;;;;;5038353;28;20040;-77
2022/07/10 10:59:46;;;;;;;3.80;1.73;;;;;;;;;;5045227;28;20039;-78
2022/07/10 11:02:22;;;;;;;8.30;2.30;;;;;;;;;;5050462;28;20492;-78
2022/07/10 11:04:50;;;;;;;3.20;1.40;;;;;;;;;;5052828;28;20634;-78
2022/07/10 11:07:35;;;;;;;3.10;1.73;;;;;;;;;;5055238;28;20797;-79
2022/07/10 11:10:20;;;;;;;4.78;1.77;;;;;;;;;;5036885;28;20063;-85
2022/07/10 11:13:07;;;;;;;6.57;2.03;;;;;;;;;;5026936;28;20048;-81
2022/07/10 11:15:34;;;;;;;3.58;1.77;;;;;;;;;;5033898;28;20029;-78
2022/07/10 11:18:07;;;;;;;5.22;2.00;;;;;;;;;;5038890;28;20123;-79
2022/07/10 11:20:36;;;;;;;3.03;1.60;;;;;;;;;;5034405;28;20048;-79
2022/07/10 11:23:17;;;;;;;5.20;2.03;;;;;;;;;;5054215;28;20052;-77
2022/07/10 11:25:50;;;;;;;5.65;1.92;;;;;;;;;;5049828;28;20048;-78
2022/07/10 11:28:18;;;;;;;3.17;1.50;;;;;;;;;;5030420;28;20041;-78
2022/07/10 11:30:44;;;;;;;3.00;1.50;;;;;;;;;;5048094;28;20044;-78
2022/07/10 11:33:11;;;;;;;4.28;1.83;;;;;;;;;;5035902;28;20093;-78
2022/07/10 11:35:39;;;;;;;3.83;1.40;;;;;;;;;;5052319;28;20376;-78
2022/07/10 11:38:05;;;;;;;4.78;1.60;;;;;;;;;;5050156;28;20045;-77
2022/07/10 11:40:31;;;;;;;5.53;1.73;;;;;;;;;;5033686;28;20088;-78
2022/07/10 11:42:59;;;;;;;6.18;1.90;;;;;;;;;;5033304;28;20040;-80
2022/07/10 11:45:32;;;;;;;7.43;2.20;;;;;;;;;;5037169;28;20467;-81
2022/07/10 11:47:59;;;;;;;5.43;2.17;;;;;;;;;;5054810;28;20385;-81
2022/07/10 11:50:25;;;;;;;4.68;1.60;;;;;;;;;;5045370;28;20413;-81
2022/07/10 11:52:51;;;;;;;4.05;1.40;;;;;;;;;;5051303;28;20420;-81
2022/07/10 11:55:22;;;;;;;4.05;1.70;;;;;;;;;;5048765;28;20052;-78
2022/07/10 11:57:48;;;;;;;7.72;1.60;;;;;;;;;;5069305;28;20411;-78
2022/07/10 12:00:33;;;;;;;4.43;1.83;;;;;;;;;;5023168;28;20033;-78
2022/07/10 12:03:16;;;;;;;5.05;1.60;;;;;;;;;;5037033;28;20618;-78
2022/07/10 12:05:42;;;;;;;8.10;2.75;;;;;;;;;;5074274;28;20384;-78
2022/07/10 12:08:08;;;;;;;6.15;1.80;;;;;;;;;;5050377;28;20378;-78
2022/07/10 12:10:35;;;;;;;5.47;2.00;;;;;;;;;;5004307;28;20409;-78
2022/07/10 12:13:11;;;;;;;7.03;1.95;;;;;;;;;;5036066;28;20166;-78
2022/07/10 12:15:42;;;;;;;3.95;1.98;;;;;;;;;;5058943;28;20035;-78
2022/07/10 12:18:09;;;;;;;3.42;1.50;;;;;;;;;;5034220;28;20069;-78
2022/07/10 12:20:38;;;;;;;6.10;2.08;;;;;;;;;;5047530;28;20131;-78
2022/07/10 12:23:04;;;;;;;4.55;1.75;;;;;;;;;;5052558;28;20443;-78
2022/07/10 12:25:30;;;;;;;5.93;1.63;;;;;;;;;;5037836;28;20450;-78
2022/07/10 12:27:58;;;;;;;6.22;2.72;;;;;;;;;;5051031;28;20040;-78
2022/07/10 12:30:36;;;;;;;4.07;1.67;;;;;;;;;;5036474;28;20058;-78
2022/07/10 12:33:10;;;;;;;3.95;1.60;;;;;;;;;;5047020;28;20040;-78
2022/07/10 12:35:48;;;;;;;6.25;2.22;;;;;;;;;;5017960;28;20589;-78
2022/07/10 12:38:21;;;;;;;4.68;1.40;;;;;;;;;;5034808;28;20063;-78
2022/07/10 12:40:49;;;;;;;6.85;2.38;;;;;;;;;;5051253;28;20464;-78
2022/07/10 12:43:26;;;;;;;9.80;1.92;;;;;;;;;;5053070;28;20035;-78
2022/07/10 12:46:11;;;;;;;3.08;1.65;;;;;;;;;;5037652;28;20090;-78
2022/07/10 12:48:37;;;;;;;4.15;1.50;;;;;;;;;;5048109;28;20036;-78
2022/07/10 12:51:23;;;;;;;3.90;1.50;;;;;;;;;;5035866;28;20361;-79
2022/07/10 12:53:49;;;;;;;5.25;2.20;;;;;;;;;;5052711;28;20044;-79
2022/07/10 12:56:27;;;;;;;5.15;1.90;;;;;;;;;;5041203;28;20116;-78
2022/07/10 12:58:53;;;;;;;6.25;1.85;;;;;;;;;;5066779;28;20051;-79
2022/07/10 13:01:19;;;;;;;3.30;1.30;;;;;;;;;;5035843;28;20123;-79
2022/07/10 13:03:45;;;;;;;3.45;1.55;;;;;;;;;;5035212;28;20494;-78
2022/07/10 13:06:31;;;;;;;5.07;1.40;;;;;;;;;;5035380;28;20125;-78
2022/07/10 13:08:57;;;;;;;3.92;1.63;;;;;;;;;;5049630;28;20093;-79
2022/07/10 13:11:23;;;;;;;3.15;1.38;;;;;;;;;;5024918;28;20147;-81
2022/07/10 13:13:50;;;;;;;3.85;1.30;;;;;;;;;;5058544;28;20071;-81
2022/07/10 13:16:16;;;;;;;4.28;1.33;;;;;;;;;;5036529;28;20476;-81
2022/07/10 13:18:46;;;;;;;4.20;1.40;;;;;;;;;;5035175;28;20045;-79
2022/07/10 13:21:12;;;;;;;2.97;1.30;;;;;;;;;;5056633;28;20594;-79
2022/07/10 13:23:39;;;;;;;2.20;1.27;;;;;;;;;;5038993;28;20040;-78
2022/07/10 13:26:09;;;;;;;2.15;1.30;;;;;;;;;;5042535;28;20080;-78
2022/07/10 13:28:35;;;;;;;3.10;2.03;;;;;;;;;;5035122;28;20480;-78
2022/07/10 13:31:02;;;;;;;5.03;2.00;;;;;;;;;;5012382;28;20059;-78
2022/07/10 13:33:28;;;;;;;2.08;1.30;;;;;;;;;;5051802;28;20579;-78
2022/07/10 13:35:54;;;;;;;3.90;1.70;;;;;;;;;;5016508;28;20056;-78
2022/07/10 13:38:21;;;;;;;4.68;1.70;;;;;;;;;;5032575;28;20127;-78
2022/07/10 13:40:48;;;;;;;7.82;2.92;;;;;;;;;;5044572;28;20049;-77
2022/07/10 13:43:16;;;;;;;4.20;2.10;;;;;;;;;;5029686;28;20049;-78
2022/07/10 13:45:45;;;;;;;4.60;1.55;;;;;;;;;;5046943;28;20044;-77
2022/07/10 13:48:12;;;;;;;5.43;1.65;;;;;;;;;;5044738;28;20051;-78
2022/07/10 13:50:42;;;;;;;4.57;1.65;;;;;;;;;;5036999;28;20119;-78
2022/07/10 13:53:08;;;;;;;3.30;1.83;;;;;;;;;;5029383;28;20144;-82
2022/07/10 13:55:34;;;;;;;2.83;1.77;;;;;;;;;;5030873;28;20079;-82
2022/07/10 13:58:01;;;;;;;5.10;1.52;;;;;;;;;;5021417;28;20075;-81
2022/07/10 14:00:28;;;;;;;4.63;2.58;;;;;;;;;;5008069;28;20683;-82
2022/07/10 14:02:56;;;;;;;2.40;1.38;;;;;;;;;;5038089;28;20109;-81
2022/07/10 14:05:23;;;;;;;3.70;1.92;;;;;;;;;;5032404;28;20171;-83
2022/07/10 14:07:50;;;;;;;6.03;1.67;;;;;;;;;;5015825;28;20048;-83
2022/07/10 14:10:16;;;;;;;4.53;1.58;;;;;;;;;;5016906;28;20116;-82
2022/07/10 14:12:44;;;;;;;3.20;2.05;;;;;;;;;;5034799;28;20035;-82
2022/07/10 14:15:10;;;;;;;3.63;1.95;;;;;;;;;;5028303;28;20040;-82
2022/07/10 14:17:36;;;;;;;5.15;1.85;;;;;;;;;;5035069;28;20040;-83
2022/07/10 14:20:03;;;;;;;8.55;2.45;;;;;;;;;;5027666;28;20108;-82
2022/07/10 14:22:29;;;;;;;2.85;1.45;;;;;;;;;;5050157;28;20051;-83
2022/07/10 14:24:56;;;;;;;5.93;2.80;;;;;;;;;;5040090;28;20076;-83
2022/07/10 14:27:27;;;;;;;6.10;2.28;;;;;;;;;;5028670;28;20480;-83
2022/07/10 14:29:53;;;;;;;3.70;1.70;;;;;;;;;;5069422;28;20151;-83
2022/07/10 14:32:20;;;;;;;4.35;1.73;;;;;;;;;;5037605;28;20041;-83
2022/07/10 14:34:46;;;;;;;3.03;1.60;;;;;;;;;;5030078;28;20410;-83
2022/07/10 14:37:12;;;;;;;4.53;2.08;;;;;;;;;;5027824;28;20059;-83
2022/07/10 14:39:39;;;;;;;4.13;1.83;;;;;;;;;;5033320;28;20051;-84
2022/07/10 14:42:05;;;;;;;3.42;1.70;;;;;;;;;;5050582;28;20399;-83
2022/07/10 14:44:33;;;;;;;2.55;1.25;;;;;;;;;;5049806;28;20131;-83
2022/07/10 14:47:00;;;;;;;4.13;1.60;;;;;;;;;;5061713;28;20071;-83
2022/07/10 14:49:26;;;;;;;4.80;2.15;;;;;;;;;;5052614;28;20044;-83
2022/07/10 14:51:52;;;;;;;4.30;1.67;;;;;;;;;;5062911;28;20075;-82
2022/07/10 14:54:18;;;;;;;3.75;1.90;;;;;;;;;;5035521;28;20044;-79
2022/07/10 14:56:44;;;;;;;4.55;2.00;;;;;;;;;;5031529;28;20040;-79